Time,TemperatureF,DewpointF,PressureIn,WindDirection,WindDirectionDegrees,WindSpeedMPH,WindSpeedGustMPH,Humidity,HourlyPrecipIn,Conditions,Clouds,dailyrainin,SoftwareType,DateUTC
2013-02-16 00:04:00,29.8,26.1,30.07,WNW,293,0.0,0.0,86,0.00,,,0.00,WUHU216HW,2013-02-16 05:04:00,
2013-02-16 00:09:00,29.8,26.1,30.07,WNW,293,0.0,0.0,86,0.00,,,0.00,WUHU216HW,2013-02-16 05:09:00,
2013-02-16 00:15:00,29.6,25.9,30.07,WNW,293,0.0,0.0,86,0.00,,,0.00,WUHU216HW,2013-02-16 05:15:00,
2013-02-16 00:20:00,29.6,25.9,30.07,WNW,293,0.0,0.0,86,0.00,,,0.00,WUHU216HW,2013-02-16 05:20:00,
2013-02-16 00:26:00,29.6,25.9,30.08,WNW,293,0.0,0.0,86,0.00,,,0.00,WUHU216HW,2013-02-16 05:26:00,
2013-02-16 00:32:00,29.6,25.9,30.07,WNW,293,0.0,0.0,86,0.00,,,0.00,WUHU216HW,2013-02-16 05:32:00,
2013-02-16 00:37:00,29.6,25.9,30.07,WNW,293,0.0,0.0,86,0.00,,,0.00,WUHU216HW,2013-02-16 05:37:00,
2013-02-16 00:43:00,29.4,25.8,30.07,WNW,293,0.0,0.0,86,0.00,,,0.00,WUHU216HW,2013-02-16 05:43:00,
2013-02-16 00:49:00,29.4,25.8,30.07,WNW,293,0.0,0.0,86,0.00,,,0.00,WUHU216HW,2013-02-16 05:49:00,
2013-02-16 00:55:00,29.4,25.8,30.07,WNW,293,0.0,0.0,86,0.00,,,0.00,WUHU216HW,2013-02-16 05:55:00,
2013-02-16 01:00:00,29.4,25.8,30.07,WNW,293,0.0,0.0,86,0.00,,,0.00,WUHU216HW,2013-02-16 06:00:00,
2013-02-16 01:05:00,29.3,25.6,30.07,WNW,293,0.0,0.0,86,0.00,,,0.00,WUHU216HW,2013-02-16 06:05:00,
2013-02-16 01:11:00,29.3,25.6,30.07,WNW,293,0.0,0.0,86,0.00,,,0.00,WUHU216HW,2013-02-16 06:11:00,
2013-02-16 01:16:00,29.3,25.6,30.07,WNW,293,0.0,0.0,86,0.00,,,0.00,WUHU216HW,2013-02-16 06:16:00,
2013-02-16 01:22:00,29.3,25.6,30.07,WNW,293,0.0,0.0,86,0.00,,,0.00,WUHU216HW,2013-02-16 06:22:00,
2013-02-16 01:27:00,29.1,25.4,30.08,WNW,293,0.0,0.0,86,0.00,,,0.00,WUHU216HW,2013-02-16 06:27:00,
2013-02-16 01:33:00,28.9,25.2,30.07,WNW,293,0.0,0.0,86,0.00,,,0.00,WUHU216HW,2013-02-16 06:33:00,
2013-02-16 01:38:00,28.5,24.6,30.07,WNW,293,0.0,0.0,85,0.00,,,0.00,WUHU216HW,2013-02-16 06:38:00,
2013-02-16 01:43:00,28.5,24.6,30.07,WNW,293,0.0,0.0,85,0.00,,,0.00,WUHU216HW,2013-02-16 06:43:00,
2013-02-16 01:49:00,28.2,23.9,30.07,WNW,293,0.0,0.0,84,0.00,,,0.00,WUHU216HW,2013-02-16 06:49:00,
2013-02-16 01:55:00,28.0,23.7,30.07,WNW,293,0.0,0.0,84,0.00,,,0.00,WUHU216HW,2013-02-16 06:55:00,
2013-02-16 02:00:00,27.6,23.4,30.07,WNW,293,0.0,0.0,84,0.00,,,0.00,WUHU216HW,2013-02-16 07:00:00,
2013-02-16 02:06:00,27.6,23.4,30.07,WNW,293,0.0,0.0,84,0.00,,,0.00,WUHU216HW,2013-02-16 07:06:00,
2013-02-16 02:11:00,27.5,23.2,30.07,WNW,293,0.0,0.0,84,0.00,,,0.00,WUHU216HW,2013-02-16 07:11:00,
2013-02-16 02:17:00,27.3,23.0,30.07,WNW,293,0.0,0.0,84,0.00,,,0.00,WUHU216HW,2013-02-16 07:17:00,
2013-02-16 02:23:00,27.3,23.0,30.07,WNW,293,0.0,0.0,84,0.00,,,0.00,WUHU216HW,2013-02-16 07:23:00,
2013-02-16 02:29:00,27.3,23.3,30.06,WNW,293,0.0,0.0,85,0.00,,,0.00,WUHU216HW,2013-02-16 07:29:00,
2013-02-16 02:34:00,27.1,23.1,30.06,WNW,293,0.0,0.0,85,0.00,,,0.00,WUHU216HW,2013-02-16 07:34:00,
2013-02-16 02:39:00,27.1,23.1,30.07,WNW,293,0.0,0.0,85,0.00,,,0.00,WUHU216HW,2013-02-16 07:39:00,
2013-02-16 02:44:00,27.1,23.1,30.06,WNW,293,0.0,0.0,85,0.00,,,0.00,WUHU216HW,2013-02-16 07:44:00,
2013-02-16 02:50:00,27.1,23.1,30.06,WNW,293,0.0,0.0,85,0.00,,,0.00,WUHU216HW,2013-02-16 07:50:00,
2013-02-16 02:56:00,27.1,23.1,30.06,WNW,293,0.0,0.0,85,0.00,,,0.00,WUHU216HW,2013-02-16 07:56:00,
2013-02-16 03:01:00,27.1,23.1,30.06,WNW,293,0.0,0.0,85,0.00,,,0.00,WUHU216HW,2013-02-16 08:01:00,
2013-02-16 03:07:00,27.1,23.1,30.05,WNW,293,0.0,0.0,85,0.00,,,0.00,WUHU216HW,2013-02-16 08:07:00,
2013-02-16 03:13:00,27.1,23.1,30.05,WNW,293,0.0,0.0,85,0.00,,,0.00,WUHU216HW,2013-02-16 08:13:00,
2013-02-16 03:18:00,26.9,23.0,30.06,WNW,293,0.0,0.0,85,0.00,,,0.00,WUHU216HW,2013-02-16 08:18:00,
2013-02-16 03:24:00,26.9,23.0,30.05,WNW,293,0.0,0.0,85,0.00,,,0.00,WUHU216HW,2013-02-16 08:24:00,
2013-02-16 03:29:00,26.9,23.0,30.05,WNW,293,0.0,0.0,85,0.00,,,0.00,WUHU216HW,2013-02-16 08:29:00,
2013-02-16 03:35:00,26.7,22.8,30.05,WNW,293,0.0,0.0,85,0.00,,,0.00,WUHU216HW,2013-02-16 08:35:00,
2013-02-16 03:40:00,26.7,22.8,30.05,WNW,293,0.0,0.0,85,0.00,,,0.00,WUHU216HW,2013-02-16 08:40:00,
2013-02-16 03:45:00,26.7,22.8,30.05,WNW,293,0.0,0.0,85,0.00,,,0.00,WUHU216HW,2013-02-16 08:45:00,
2013-02-16 03:51:00,26.7,22.8,30.05,WNW,293,0.0,0.0,85,0.00,,,0.00,WUHU216HW,2013-02-16 08:51:00,
2013-02-16 03:57:00,26.7,22.8,30.05,WNW,293,0.0,0.0,85,0.00,,,0.00,WUHU216HW,2013-02-16 08:57:00,
2013-02-16 04:02:00,26.7,22.8,30.05,WNW,293,0.0,0.0,85,0.00,,,0.00,WUHU216HW,2013-02-16 09:02:00,
2013-02-16 04:08:00,26.7,22.8,30.05,WNW,293,0.0,0.0,85,0.00,,,0.00,WUHU216HW,2013-02-16 09:08:00,
2013-02-16 04:14:00,26.7,22.8,30.05,WNW,293,0.0,0.0,85,0.00,,,0.00,WUHU216HW,2013-02-16 09:14:00,
2013-02-16 04:19:00,26.6,22.6,30.05,WNW,293,0.0,0.0,85,0.00,,,0.00,WUHU216HW,2013-02-16 09:19:00,
2013-02-16 04:24:00,26.6,22.6,30.05,WNW,293,0.0,0.0,85,0.00,,,0.00,WUHU216HW,2013-02-16 09:24:00,
2013-02-16 04:30:00,26.4,22.4,30.05,WNW,293,0.0,0.0,85,0.00,,,0.00,WUHU216HW,2013-02-16 09:30:00,
2013-02-16 04:36:00,26.6,22.6,30.05,WNW,293,0.0,0.0,85,0.00,,,0.00,WUHU216HW,2013-02-16 09:36:00,
2013-02-16 04:41:00,26.4,22.4,30.06,WNW,293,0.0,0.0,85,0.00,,,0.00,WUHU216HW,2013-02-16 09:41:00,
2013-02-16 04:47:00,26.4,22.4,30.05,WNW,293,0.0,0.0,85,0.00,,,0.00,WUHU216HW,2013-02-16 09:47:00,
2013-02-16 04:53:00,26.4,22.4,30.06,WNW,293,0.0,0.0,85,0.00,,,0.00,WUHU216HW,2013-02-16 09:53:00,
2013-02-16 04:59:00,26.4,22.4,30.06,WNW,293,0.0,0.0,85,0.00,,,0.00,WUHU216HW,2013-02-16 09:59:00,
2013-02-16 05:04:00,26.2,22.2,30.06,WNW,293,0.0,0.0,85,0.00,,,0.00,WUHU216HW,2013-02-16 10:04:00,
2013-02-16 05:10:00,25.8,21.9,30.05,WNW,293,0.0,0.0,85,0.00,,,0.00,WUHU216HW,2013-02-16 10:10:00,
2013-02-16 05:15:00,25.8,21.9,30.05,WNW,293,0.0,0.0,85,0.00,,,0.00,WUHU216HW,2013-02-16 10:15:00,
2013-02-16 05:21:00,25.7,21.7,30.05,WNW,293,0.0,0.0,85,0.00,,,0.00,WUHU216HW,2013-02-16 10:21:00,
2013-02-16 05:26:00,25.7,21.7,30.05,WNW,293,0.0,0.0,85,0.00,,,0.00,WUHU216HW,2013-02-16 10:26:00,
2013-02-16 05:32:00,25.7,21.7,30.05,WNW,293,0.0,0.0,85,0.00,,,0.00,WUHU216HW,2013-02-16 10:32:00,
2013-02-16 05:38:00,25.8,22.2,30.05,WNW,293,0.0,0.0,86,0.00,,,0.00,WUHU216HW,2013-02-16 10:38:00,
2013-02-16 05:44:00,25.8,22.2,30.05,WNW,293,0.0,0.0,86,0.00,,,0.00,WUHU216HW,2013-02-16 10:44:00,
2013-02-16 05:49:00,25.8,22.2,30.05,WNW,293,0.0,0.0,86,0.00,,,0.00,WUHU216HW,2013-02-16 10:49:00,
2013-02-16 05:54:00,26.0,22.4,30.05,WNW,293,0.0,0.0,86,0.00,,,0.00,WUHU216HW,2013-02-16 10:54:00,
2013-02-16 06:00:00,26.0,22.4,30.05,WNW,293,0.0,0.0,86,0.00,,,0.00,WUHU216HW,2013-02-16 11:00:00,
2013-02-16 06:05:00,26.0,22.4,30.05,WNW,293,0.0,0.0,86,0.00,,,0.00,WUHU216HW,2013-02-16 11:05:00,
2013-02-16 06:10:00,26.0,22.4,30.05,WNW,293,0.0,0.0,86,0.00,,,0.00,WUHU216HW,2013-02-16 11:10:00,
2013-02-16 06:16:00,26.0,22.4,30.05,WNW,293,0.0,0.0,86,0.00,,,0.00,WUHU216HW,2013-02-16 11:16:00,
2013-02-16 06:21:00,26.2,22.5,30.05,WNW,293,0.0,0.0,86,0.00,,,0.00,WUHU216HW,2013-02-16 11:21:00,
2013-02-16 06:27:00,26.0,22.4,30.05,WNW,293,0.0,0.0,86,0.00,,,0.00,WUHU216HW,2013-02-16 11:27:00,
2013-02-16 06:32:00,26.0,22.4,30.05,WNW,293,0.0,0.0,86,0.00,,,0.00,WUHU216HW,2013-02-16 11:32:00,
2013-02-16 06:43:00,26.0,22.4,30.05,WNW,293,0.0,0.0,86,0.00,,,0.00,WUHU216HW,2013-02-16 11:43:00,
2013-02-16 06:48:00,26.0,22.4,30.05,WNW,293,0.0,0.0,86,0.00,,,0.00,WUHU216HW,2013-02-16 11:48:00,
2013-02-16 06:59:00,26.0,22.4,30.05,WNW,293,0.0,0.0,86,0.00,,,0.00,WUHU216HW,2013-02-16 11:59:00,
2013-02-16 07:05:00,26.0,22.4,30.05,WNW,293,0.0,0.0,86,0.00,,,0.00,WUHU216HW,2013-02-16 12:05:00,
2013-02-16 07:11:00,25.8,22.2,30.05,WNW,293,0.0,0.0,86,0.00,,,0.00,WUHU216HW,2013-02-16 12:11:00,
2013-02-16 07:16:00,25.8,22.2,30.05,WNW,293,0.0,0.0,86,0.00,,,0.00,WUHU216HW,2013-02-16 12:16:00,
2013-02-16 07:22:00,25.8,22.2,30.05,WNW,293,0.0,0.0,86,0.00,,,0.00,WUHU216HW,2013-02-16 12:22:00,
2013-02-16 07:27:00,25.8,22.2,30.05,WNW,293,0.0,0.0,86,0.00,,,0.00,WUHU216HW,2013-02-16 12:27:00,
2013-02-16 07:32:00,25.8,22.2,30.06,WNW,293,0.0,0.0,86,0.00,,,0.00,WUHU216HW,2013-02-16 12:32:00,
2013-02-16 07:38:00,25.7,21.7,30.06,WNW,293,0.0,0.0,85,0.00,,,0.00,WUHU216HW,2013-02-16 12:38:00,
2013-02-16 07:44:00,25.7,21.7,30.06,WNW,293,0.0,0.0,85,0.00,,,0.00,WUHU216HW,2013-02-16 12:44:00,
2013-02-16 07:50:00,25.5,21.6,30.06,WNW,293,0.0,0.0,85,0.00,,,0.00,WUHU216HW,2013-02-16 12:50:00,
2013-02-16 07:56:00,25.5,21.6,30.06,WNW,293,0.0,0.0,85,0.00,,,0.00,WUHU216HW,2013-02-16 12:56:00,
2013-02-16 08:01:00,25.5,21.6,30.06,WNW,293,0.0,0.0,85,0.00,,,0.00,WUHU216HW,2013-02-16 13:01:00,
2013-02-16 08:06:00,25.7,21.7,30.06,WNW,293,0.0,0.0,85,0.00,,,0.00,WUHU216HW,2013-02-16 13:06:00,
2013-02-16 08:12:00,25.8,22.1,30.06,WNW,293,0.0,0.0,85,0.00,,,0.00,WUHU216HW,2013-02-16 13:12:00,
2013-02-16 08:17:00,26.2,22.2,30.06,WNW,293,0.0,0.0,85,0.00,,,0.00,WUHU216HW,2013-02-16 13:17:00,
2013-02-16 08:23:00,26.6,22.6,30.07,WNW,293,0.0,0.0,85,0.00,,,0.00,WUHU216HW,2013-02-16 13:23:00,
2013-02-16 08:28:00,26.9,23.0,30.07,WNW,293,0.0,0.0,85,0.00,,,0.00,WUHU216HW,2013-02-16 13:28:00,
2013-02-16 08:33:00,27.3,23.3,30.06,WNW,293,0.0,0.0,85,0.00,,,0.00,WUHU216HW,2013-02-16 13:33:00,
2013-02-16 08:39:00,28.2,24.5,30.06,WNW,293,0.0,0.0,86,0.00,,,0.00,WUHU216HW,2013-02-16 13:39:00,
2013-02-16 08:44:00,28.5,24.6,30.06,WNW,293,0.0,0.0,85,0.00,,,0.00,WUHU216HW,2013-02-16 13:44:00,
2013-02-16 08:49:00,29.3,25.3,30.06,WNW,293,0.0,0.0,85,0.00,,,0.00,WUHU216HW,2013-02-16 13:49:00,
2013-02-16 08:55:00,29.3,25.3,30.06,WNW,293,0.0,0.0,85,0.00,,,0.00,WUHU216HW,2013-02-16 13:55:00,
2013-02-16 09:01:00,29.1,24.8,30.06,WNW,293,0.0,0.0,84,0.00,,,0.00,WUHU216HW,2013-02-16 14:01:00,
2013-02-16 09:07:00,28.9,24.6,30.05,WNW,293,0.0,0.0,84,0.00,,,0.00,WUHU216HW,2013-02-16 14:07:00,
2013-02-16 09:12:00,28.5,24.0,30.05,WNW,293,0.0,0.0,84,0.00,,,0.00,WUHU216HW,2013-02-16 14:12:00,
2013-02-16 09:17:00,28.7,24.2,30.05,WNW,293,0.0,0.0,83,0.00,,,0.00,WUHU216HW,2013-02-16 14:17:00,
2013-02-16 09:22:00,28.7,24.2,30.05,WNW,293,0.0,0.0,83,0.00,,,0.00,WUHU216HW,2013-02-16 14:22:00,
2013-02-16 09:28:00,28.7,24.2,30.06,WNW,293,0.0,0.0,83,0.00,,,0.00,WUHU216HW,2013-02-16 14:28:00,
2013-02-16 09:33:00,28.7,24.2,30.05,WNW,293,0.0,0.0,83,0.00,,,0.00,WUHU216HW,2013-02-16 14:33:00,
2013-02-16 09:39:00,28.9,24.4,30.05,WNW,293,0.0,0.0,83,0.00,,,0.00,WUHU216HW,2013-02-16 14:39:00,
2013-02-16 09:45:00,29.3,24.7,30.05,WNW,293,0.0,0.0,83,0.00,,,0.00,WUHU216HW,2013-02-16 14:45:00,
2013-02-16 09:50:00,30.0,25.4,30.05,WNW,293,0.0,0.0,83,0.00,,,0.00,WUHU216HW,2013-02-16 14:50:00,
2013-02-16 09:55:00,30.5,25.7,30.05,WNW,293,0.0,0.0,82,0.00,,,0.00,WUHU216HW,2013-02-16 14:55:00,
2013-02-16 10:01:00,30.9,26.0,30.05,WNW,293,0.0,0.0,82,0.00,,,0.00,WUHU216HW,2013-02-16 15:01:00,
2013-02-16 10:06:00,31.6,26.5,30.05,WNW,293,0.0,0.0,81,0.00,,,0.00,WUHU216HW,2013-02-16 15:06:00,
2013-02-16 10:12:00,32.5,27.3,30.05,WNW,293,0.0,0.0,81,0.00,,,0.00,WUHU216HW,2013-02-16 15:12:00,
2013-02-16 10:17:00,32.9,27.4,30.05,WNW,293,0.0,0.0,80,0.00,,,0.00,WUHU216HW,2013-02-16 15:17:00,
2013-02-16 10:23:00,33.8,27.8,30.05,WNW,293,0.0,0.0,79,0.00,,,0.00,WUHU216HW,2013-02-16 15:23:00,
2013-02-16 10:28:00,34.3,28.4,30.05,WNW,293,0.0,0.0,79,0.00,,,0.00,WUHU216HW,2013-02-16 15:28:00,
2013-02-16 10:34:00,34.1,27.6,30.05,WNW,293,0.0,0.0,77,0.00,,,0.00,WUHU216HW,2013-02-16 15:34:00,
2013-02-16 10:40:00,33.6,26.7,30.04,WNW,293,0.0,0.0,76,0.00,,,0.00,WUHU216HW,2013-02-16 15:40:00,
2013-02-16 10:46:00,33.6,26.7,30.05,WNW,293,0.0,0.0,76,0.00,,,0.00,WUHU216HW,2013-02-16 15:46:00,
2013-02-16 10:51:00,33.4,26.6,30.04,WNW,293,0.0,0.0,76,0.00,,,0.00,WUHU216HW,2013-02-16 15:51:00,
2013-02-16 10:57:00,33.6,26.7,30.04,WNW,293,0.0,0.0,76,0.00,,,0.00,WUHU216HW,2013-02-16 15:57:00,
2013-02-16 11:02:00,34.3,27.4,30.04,WNW,293,0.0,0.0,76,0.00,,,0.00,WUHU216HW,2013-02-16 16:02:00,
2013-02-16 11:07:00,34.8,27.6,30.04,WNW,293,0.0,0.0,75,0.00,,,0.00,WUHU216HW,2013-02-16 16:07:00,
2013-02-16 11:12:00,34.8,27.1,30.04,WNW,293,0.0,0.0,74,0.00,,,0.00,WUHU216HW,2013-02-16 16:12:00,
2013-02-16 11:18:00,34.3,26.4,30.03,WNW,293,0.0,0.0,73,0.00,,,0.00,WUHU216HW,2013-02-16 16:18:00,
2013-02-16 11:23:00,33.0,25.3,30.03,WNW,293,0.0,0.0,73,0.00,,,0.00,WUHU216HW,2013-02-16 16:23:00,
2013-02-16 11:28:00,32.5,25.1,30.03,WNW,293,0.0,0.0,74,0.00,,,0.00,WUHU216HW,2013-02-16 16:28:00,
2013-02-16 11:34:00,32.7,25.3,30.03,WNW,293,0.0,0.0,74,0.00,,,0.00,WUHU216HW,2013-02-16 16:34:00,
2013-02-16 11:39:00,32.7,25.3,30.03,WNW,293,0.0,0.0,74,0.00,,,0.00,WUHU216HW,2013-02-16 16:39:00,
2013-02-16 11:45:00,33.4,25.9,30.03,WNW,293,0.0,0.0,74,0.00,,,0.00,WUHU216HW,2013-02-16 16:45:00,
2013-02-16 11:50:00,33.9,26.4,30.03,WNW,293,0.0,0.0,74,0.00,,,0.00,WUHU216HW,2013-02-16 16:50:00,
2013-02-16 11:56:00,34.8,27.0,30.02,WNW,293,0.0,0.0,73,0.00,,,0.00,WUHU216HW,2013-02-16 16:56:00,
2013-02-16 12:01:00,35.6,27.4,30.02,WNW,293,0.0,0.0,72,0.00,,,0.00,WUHU216HW,2013-02-16 17:01:00,
2013-02-16 12:07:00,37.4,29.5,30.02,WNW,293,0.0,0.0,73,0.00,,,0.00,WUHU216HW,2013-02-16 17:07:00,
2013-02-16 12:13:00,39.7,30.7,30.01,WNW,293,0.0,0.0,70,0.00,,,0.00,WUHU216HW,2013-02-16 17:13:00,
2013-02-16 12:18:00,39.9,29.7,30.01,WNW,293,0.0,0.0,67,0.00,,,0.00,WUHU216HW,2013-02-16 17:18:00,
2013-02-16 12:24:00,38.3,27.8,30.01,WNW,293,0.0,0.0,66,0.00,,,0.00,WUHU216HW,2013-02-16 17:24:00,
2013-02-16 12:29:00,37.5,27.3,30.01,WNW,293,0.0,0.0,66,0.00,,,0.00,WUHU216HW,2013-02-16 17:29:00,
2013-02-16 12:34:00,37.0,26.3,30.00,WNW,293,0.0,0.0,65,0.00,,,0.00,WUHU216HW,2013-02-16 17:34:00,
2013-02-16 12:39:00,37.5,27.2,30.00,WNW,293,0.0,0.0,66,0.00,,,0.00,WUHU216HW,2013-02-16 17:39:00,
2013-02-16 12:45:00,37.7,27.0,30.00,West,270,0.0,0.0,65,0.00,,,0.00,WUHU216HW,2013-02-16 17:45:00,
2013-02-16 12:50:00,37.4,26.3,30.00,West,270,0.0,0.0,64,0.00,,,0.00,WUHU216HW,2013-02-16 17:50:00,
2013-02-16 12:55:00,38.1,27.3,30.00,West,270,0.0,0.0,65,0.00,,,0.00,WUHU216HW,2013-02-16 17:55:00,
2013-02-16 13:00:00,38.4,27.2,29.99,SW,225,0.0,0.0,64,0.00,,,0.00,WUHU216HW,2013-02-16 18:00:00,
2013-02-16 13:06:00,38.4,26.9,29.99,NW,315,0.0,0.0,63,0.00,,,0.00,WUHU216HW,2013-02-16 18:06:00,
2013-02-16 13:11:00,37.7,25.8,29.99,NW,315,0.0,0.0,62,0.02,,,0.02,WUHU216HW,2013-02-16 18:11:00,
2013-02-16 13:17:00,37.0,25.2,29.99,West,270,0.0,0.0,62,0.02,,,0.02,WUHU216HW,2013-02-16 18:17:00,
2013-02-16 13:28:00,36.5,24.3,29.99,NW,315,0.0,0.0,61,0.02,,,0.02,WUHU216HW,2013-02-16 18:28:00,
2013-02-16 13:33:00,36.1,24.0,29.99,NW,315,0.0,0.0,61,0.02,,,0.02,WUHU216HW,2013-02-16 18:33:00,
2013-02-16 13:39:00,35.9,23.8,29.98,NW,315,0.0,0.0,61,0.04,,,0.04,WUHU216HW,2013-02-16 18:39:00,
2013-02-16 13:45:00,36.1,24.0,29.98,NW,315,0.0,0.0,61,0.04,,,0.04,WUHU216HW,2013-02-16 18:45:00,
2013-02-16 13:50:00,36.8,24.6,29.98,NW,315,0.0,0.0,61,0.04,,,0.04,WUHU216HW,2013-02-16 18:50:00,
2013-02-16 13:56:00,37.4,24.8,29.97,NW,315,0.0,0.0,60,0.04,,,0.04,WUHU216HW,2013-02-16 18:56:00,
2013-02-16 14:06:00,37.9,24.8,29.97,WNW,293,0.0,0.0,59,0.04,,,0.04,WUHU216HW,2013-02-16 19:06:00,
2013-02-16 14:12:00,37.2,24.2,29.97,West,270,0.0,0.0,59,0.02,,,0.04,WUHU216HW,2013-02-16 19:12:00,
2013-02-16 14:17:00,36.5,23.5,29.97,West,270,0.0,0.0,59,0.02,,,0.04,WUHU216HW,2013-02-16 19:17:00,
2013-02-16 14:22:00,36.6,24.1,29.97,West,270,0.0,0.0,60,0.04,,,0.06,WUHU216HW,2013-02-16 19:22:00,
2013-02-16 14:28:00,36.6,23.7,29.97,West,270,0.0,0.0,59,0.04,,,0.06,WUHU216HW,2013-02-16 19:28:00,
2013-02-16 14:33:00,36.3,23.3,29.97,SW,225,0.0,0.0,59,0.04,,,0.06,WUHU216HW,2013-02-16 19:33:00,
2013-02-16 14:39:00,36.3,23.8,29.97,WNW,293,0.0,0.0,60,0.02,,,0.06,WUHU216HW,2013-02-16 19:39:00,
2013-02-16 14:44:00,36.3,23.8,29.97,WNW,293,0.0,0.0,60,0.02,,,0.06,WUHU216HW,2013-02-16 19:44:00,
2013-02-16 14:50:00,36.3,23.3,29.97,WNW,293,0.0,0.0,59,0.02,,,0.06,WUHU216HW,2013-02-16 19:50:00,
2013-02-16 14:56:00,35.7,22.9,29.97,WSW,248,0.0,0.0,59,0.02,,,0.06,WUHU216HW,2013-02-16 19:56:00,
2013-02-16 15:02:00,34.3,21.4,29.97,NW,315,0.0,0.0,59,0.02,,,0.06,WUHU216HW,2013-02-16 20:02:00,
2013-02-16 15:07:00,33.6,21.2,29.97,NNE,23,0.0,0.0,60,0.02,,,0.06,WUHU216HW,2013-02-16 20:07:00,
2013-02-16 15:13:00,32.9,20.9,29.97,WNW,293,0.0,0.0,61,0.02,,,0.06,WUHU216HW,2013-02-16 20:13:00,
2013-02-16 15:18:00,32.7,21.1,29.97,West,270,0.0,0.0,62,0.00,,,0.06,WUHU216HW,2013-02-16 20:18:00,
2013-02-16 15:24:00,32.7,21.1,29.97,NNW,338,0.0,0.0,62,0.00,,,0.06,WUHU216HW,2013-02-16 20:24:00,
2013-02-16 15:29:00,32.9,21.2,29.97,NNW,338,0.0,0.0,62,0.00,,,0.06,WUHU216HW,2013-02-16 20:29:00,
2013-02-16 15:35:00,33.0,21.4,29.97,NNW,338,0.0,0.0,62,0.00,,,0.06,WUHU216HW,2013-02-16 20:35:00,
2013-02-16 15:40:00,33.2,21.6,29.97,NW,315,0.0,0.0,62,0.00,,,0.06,WUHU216HW,2013-02-16 20:40:00,
2013-02-16 15:46:00,33.2,21.6,29.97,West,270,0.0,0.0,62,0.00,,,0.06,WUHU216HW,2013-02-16 20:46:00,
2013-02-16 15:51:00,33.0,21.4,29.97,WSW,248,0.0,0.0,62,0.00,,,0.06,WUHU216HW,2013-02-16 20:51:00,
2013-02-16 15:56:00,32.7,21.1,29.97,WNW,293,0.0,0.0,62,0.00,,,0.06,WUHU216HW,2013-02-16 20:56:00,
2013-02-16 16:02:00,32.3,20.4,29.97,West,270,0.0,0.0,61,0.00,,,0.06,WUHU216HW,2013-02-16 21:02:00,
2013-02-16 16:07:00,32.1,20.2,29.97,NW,315,0.0,3.8,61,0.00,,,0.06,WUHU216HW,2013-02-16 21:07:00,
2013-02-16 16:17:00,31.2,19.4,29.98,West,270,1.5,5.3,61,0.00,,,0.06,WUHU216HW,2013-02-16 21:17:00,
2013-02-16 16:22:00,31.1,19.2,29.98,West,270,2.6,5.3,61,0.00,,,0.06,WUHU216HW,2013-02-16 21:22:00,
2013-02-16 16:27:00,31.1,19.5,29.98,NW,315,4.4,4.4,62,0.00,,,0.06,WUHU216HW,2013-02-16 21:27:00,
2013-02-16 16:33:00,30.9,19.4,29.98,NW,315,3.3,4.4,62,0.00,,,0.06,WUHU216HW,2013-02-16 21:33:00,
2013-02-16 16:39:00,30.7,19.9,29.98,NW,315,3.3,4.4,64,0.00,,,0.06,WUHU216HW,2013-02-16 21:39:00,
2013-02-16 16:44:00,30.7,19.9,29.98,NW,315,0.0,3.3,64,0.00,,,0.06,WUHU216HW,2013-02-16 21:44:00,
2013-02-16 16:55:00,30.3,19.9,29.97,NW,315,0.0,0.0,65,0.00,,,0.06,WUHU216HW,2013-02-16 21:55:00,
2013-02-16 17:00:00,30.2,19.7,29.98,West,270,5.8,5.8,65,0.00,,,0.06,WUHU216HW,2013-02-16 22:00:00,
2013-02-16 17:06:00,30.0,19.5,29.98,WNW,293,0.0,5.8,65,0.00,,,0.06,WUHU216HW,2013-02-16 22:06:00,
2013-02-16 17:11:00,29.8,19.4,29.99,WNW,293,3.3,3.3,65,0.00,,,0.06,WUHU216HW,2013-02-16 22:11:00,
2013-02-16 17:17:00,29.4,19.1,29.99,WNW,293,6.9,6.9,65,0.00,,,0.06,WUHU216HW,2013-02-16 22:17:00,
2013-02-16 17:22:00,29.1,18.4,29.98,West,270,0.0,6.9,64,0.00,,,0.06,WUHU216HW,2013-02-16 22:22:00,
2013-02-16 17:27:00,28.9,18.2,29.98,WNW,293,0.0,6.9,64,0.00,,,0.06,WUHU216HW,2013-02-16 22:27:00,
2013-02-16 17:38:00,28.5,18.3,29.98,NW,315,0.0,0.0,65,0.00,,,0.06,WUHU216HW,2013-02-16 22:38:00,
2013-02-16 17:44:00,28.2,18.3,29.98,NW,315,0.0,0.0,66,0.00,,,0.06,WUHU216HW,2013-02-16 22:44:00,
2013-02-16 17:49:00,28.0,18.1,29.98,NW,315,0.0,0.0,66,0.00,,,0.06,WUHU216HW,2013-02-16 22:49:00,
2013-02-16 17:55:00,27.6,17.7,29.98,NW,315,0.0,0.0,66,0.00,,,0.06,WUHU216HW,2013-02-16 22:55:00,
2013-02-16 18:00:00,27.3,17.4,29.98,NW,315,0.0,0.0,66,0.00,,,0.06,WUHU216HW,2013-02-16 23:00:00,
2013-02-16 18:05:00,27.1,17.2,29.99,NW,315,0.0,0.0,66,0.00,,,0.06,WUHU216HW,2013-02-16 23:05:00,
2013-02-16 18:10:00,26.9,17.4,29.99,WSW,248,0.0,0.0,67,0.00,,,0.06,WUHU216HW,2013-02-16 23:10:00,
2013-02-16 18:15:00,26.9,17.4,29.99,WSW,248,0.0,0.0,67,0.00,,,0.06,WUHU216HW,2013-02-16 23:15:00,
2013-02-16 18:20:00,26.7,17.2,29.99,WSW,248,0.0,0.0,67,0.00,,,0.06,WUHU216HW,2013-02-16 23:20:00,
2013-02-16 18:26:00,26.6,17.0,29.99,WSW,248,0.0,0.0,67,0.00,,,0.06,WUHU216HW,2013-02-16 23:26:00,
2013-02-16 18:32:00,26.4,17.2,29.99,WSW,248,0.0,0.0,68,0.00,,,0.06,WUHU216HW,2013-02-16 23:32:00,
2013-02-16 18:37:00,26.4,17.2,29.99,WSW,248,0.0,0.0,68,0.00,,,0.06,WUHU216HW,2013-02-16 23:37:00,
2013-02-16 18:42:00,26.4,17.2,29.99,WSW,248,0.0,0.0,68,0.00,,,0.06,WUHU216HW,2013-02-16 23:42:00,
2013-02-16 18:48:00,26.4,17.6,29.99,WSW,248,0.0,0.0,69,0.00,,,0.06,WUHU216HW,2013-02-16 23:48:00,
2013-02-16 18:54:00,26.6,17.7,29.99,WSW,248,0.0,0.0,69,0.00,,,0.06,WUHU216HW,2013-02-16 23:54:00,
2013-02-16 19:00:00,26.6,17.7,29.99,WSW,248,0.0,0.0,69,0.00,,,0.06,WUHU216HW,2013-02-17 00:00:00,
2013-02-16 19:10:00,26.4,17.6,29.98,WSW,248,0.0,0.0,69,0.00,,,0.06,WUHU216HW,2013-02-17 00:10:00,
2013-02-16 19:16:00,26.2,16.8,29.98,WSW,248,0.0,0.0,68,0.00,,,0.06,WUHU216HW,2013-02-17 00:16:00,
2013-02-16 19:22:00,25.5,16.7,29.98,WSW,248,0.0,0.0,69,0.00,,,0.06,WUHU216HW,2013-02-17 00:22:00,
2013-02-16 19:28:00,24.9,16.1,29.98,WSW,248,0.0,0.0,69,0.00,,,0.06,WUHU216HW,2013-02-17 00:28:00,
2013-02-16 19:34:00,24.4,16.0,29.98,WSW,248,0.0,0.0,70,0.00,,,0.06,WUHU216HW,2013-02-17 00:34:00,
2013-02-16 19:40:00,23.9,15.5,29.98,WSW,248,0.0,0.0,70,0.00,,,0.06,WUHU216HW,2013-02-17 00:40:00,
2013-02-16 19:45:00,23.5,15.2,29.98,WSW,248,0.0,0.0,70,0.00,,,0.06,WUHU216HW,2013-02-17 00:45:00,
2013-02-16 19:50:00,23.3,15.0,29.98,WSW,248,0.0,0.0,70,0.00,,,0.06,WUHU216HW,2013-02-17 00:50:00,
2013-02-16 19:56:00,22.8,14.8,29.98,WSW,248,0.0,0.0,71,0.00,,,0.06,WUHU216HW,2013-02-17 00:56:00,
2013-02-16 20:01:00,22.8,14.8,29.98,WSW,248,0.0,0.0,71,0.00,,,0.06,WUHU216HW,2013-02-17 01:01:00,
2013-02-16 20:06:00,22.4,14.4,29.98,WSW,248,0.0,0.0,71,0.00,,,0.06,WUHU216HW,2013-02-17 01:06:00,
2013-02-16 20:11:00,22.2,14.3,29.97,WSW,248,0.0,0.0,71,0.00,,,0.06,WUHU216HW,2013-02-17 01:11:00,
2013-02-16 20:19:00,21.9,14.2,29.97,WSW,248,0.0,0.0,72,0.00,,,0.06,WUHU216HW,2013-02-17 01:19:00,
2013-02-16 20:30:00,21.5,13.8,29.97,WSW,248,0.0,0.0,72,0.00,,,0.06,WUHU216HW,2013-02-17 01:30:00,
2013-02-16 20:35:00,21.3,13.7,29.97,WSW,248,0.0,0.0,72,0.00,,,0.06,WUHU216HW,2013-02-17 01:35:00,
2013-02-16 20:41:00,21.2,13.5,29.97,WSW,248,0.0,0.0,72,0.00,,,0.06,WUHU216HW,2013-02-17 01:41:00,
2013-02-16 20:47:00,21.0,13.6,29.96,WSW,248,0.0,0.0,73,0.00,,,0.06,WUHU216HW,2013-02-17 01:47:00,
2013-02-16 20:52:00,20.8,13.4,29.97,WSW,248,0.0,0.0,73,0.00,,,0.06,WUHU216HW,2013-02-17 01:52:00,
2013-02-16 20:57:00,20.4,13.1,29.96,WSW,248,0.0,0.0,73,0.00,,,0.06,WUHU216HW,2013-02-17 01:57:00,
2013-02-16 21:02:00,20.1,12.7,29.97,WSW,248,0.0,0.0,73,0.00,,,0.06,WUHU216HW,2013-02-17 02:02:00,
2013-02-16 21:07:00,19.9,12.5,29.96,WSW,248,0.0,0.0,73,0.00,,,0.06,WUHU216HW,2013-02-17 02:07:00,
2013-02-16 21:13:00,19.7,12.7,29.97,WSW,248,0.0,0.0,74,0.00,,,0.06,WUHU216HW,2013-02-17 02:13:00,
2013-02-16 21:18:00,19.5,12.5,29.96,WSW,248,0.0,0.0,74,0.00,,,0.06,WUHU216HW,2013-02-17 02:18:00,
2013-02-16 21:24:00,19.5,12.5,29.96,WSW,248,0.0,0.0,74,0.00,,,0.06,WUHU216HW,2013-02-17 02:24:00,
2013-02-16 21:30:00,19.2,12.4,29.96,WSW,248,0.0,0.0,75,0.00,,,0.06,WUHU216HW,2013-02-17 02:30:00,
2013-02-16 21:35:00,19.2,12.4,29.96,WSW,248,0.0,0.0,75,0.00,,,0.06,WUHU216HW,2013-02-17 02:35:00,
2013-02-16 21:41:00,19.2,12.4,29.96,WSW,248,0.0,0.0,75,0.00,,,0.06,WUHU216HW,2013-02-17 02:41:00,
2013-02-16 21:46:00,19.0,12.3,29.96,WSW,248,0.0,0.0,75,0.00,,,0.06,WUHU216HW,2013-02-17 02:46:00,
2013-02-16 21:52:00,18.8,12.1,29.96,WSW,248,0.0,0.0,75,0.00,,,0.06,WUHU216HW,2013-02-17 02:52:00,
2013-02-16 21:57:00,18.6,12.2,29.96,WSW,248,0.0,0.0,76,0.00,,,0.06,WUHU216HW,2013-02-17 02:57:00,
2013-02-16 22:03:00,18.5,12.0,29.96,WSW,248,0.0,0.0,76,0.00,,,0.06,WUHU216HW,2013-02-17 03:03:00,
2013-02-16 22:14:00,18.3,11.9,29.96,WSW,248,0.0,0.0,76,0.00,,,0.06,WUHU216HW,2013-02-17 03:14:00,
2013-02-16 22:19:00,18.1,11.7,29.96,SW,225,0.0,0.0,76,0.00,,,0.06,WUHU216HW,2013-02-17 03:19:00,
2013-02-16 22:25:00,18.3,12.5,29.96,NW,315,0.0,0.0,78,0.00,,,0.06,WUHU216HW,2013-02-17 03:25:00,
2013-02-16 22:30:00,19.0,13.2,29.96,WNW,293,0.0,0.0,78,0.00,,,0.06,WUHU216HW,2013-02-17 03:30:00,
2013-02-16 22:36:00,19.5,13.7,29.96,WNW,293,0.0,0.0,78,0.00,,,0.06,WUHU216HW,2013-02-17 03:36:00,
2013-02-16 22:41:00,19.5,13.7,29.96,WNW,293,0.0,0.0,78,0.00,,,0.06,WUHU216HW,2013-02-17 03:41:00,
2013-02-16 22:46:00,19.5,13.7,29.95,WNW,293,0.0,0.0,78,0.00,,,0.06,WUHU216HW,2013-02-17 03:46:00,
2013-02-16 22:52:00,19.9,14.1,29.95,West,270,0.0,0.0,78,0.00,,,0.06,WUHU216HW,2013-02-17 03:52:00,
2013-02-16 22:57:00,20.3,14.2,29.95,WNW,293,0.0,0.0,78,0.00,,,0.06,WUHU216HW,2013-02-17 03:57:00,
2013-02-16 23:03:00,20.8,15.0,29.95,WNW,293,0.0,0.0,78,0.00,,,0.06,WUHU216HW,2013-02-17 04:03:00,
2013-02-16 23:08:00,21.0,15.1,29.95,WNW,293,0.0,0.0,78,0.00,,,0.06,WUHU216HW,2013-02-17 04:08:00,
2013-02-16 23:14:00,21.3,15.5,29.95,NW,315,0.0,0.0,78,0.00,,,0.06,WUHU216HW,2013-02-17 04:14:00,
2013-02-16 23:20:00,21.7,16.2,29.95,West,270,0.0,0.0,79,0.00,,,0.06,WUHU216HW,2013-02-17 04:20:00,
2013-02-16 23:26:00,22.1,16.5,29.95,West,270,0.0,0.0,79,0.00,,,0.06,WUHU216HW,2013-02-17 04:26:00,
2013-02-16 23:31:00,22.4,17.2,29.95,West,270,0.0,0.0,80,0.00,,,0.06,WUHU216HW,2013-02-17 04:31:00,
2013-02-16 23:36:00,22.8,17.6,29.94,NW,315,0.0,0.0,80,0.00,,,0.06,WUHU216HW,2013-02-17 04:36:00,
2013-02-16 23:42:00,22.8,17.6,29.94,West,270,2.2,2.2,80,0.00,,,0.06,WUHU216HW,2013-02-17 04:42:00,
2013-02-16 23:47:00,23.0,17.7,29.94,WNW,293,0.0,2.2,80,0.00,,,0.06,WUHU216HW,2013-02-17 04:47:00,
2013-02-16 23:53:00,23.1,17.9,29.95,WNW,293,3.3,3.3,80,0.00,,,0.06,WUHU216HW,2013-02-17 04:53:00,
2013-02-16 23:59:00,23.1,18.2,29.95,West,270,5.8,5.8,81,0.00,,,0.06,WUHU216HW,2013-02-17 04:59:00,